Time;durP1;ratioP1;P1;durP2;ratioP2;P2;SDS_P1;SDS_P2;PMS_P1;PMS_P2;Temp;Humidity;BMP_temperature;BMP_pressure;BME280_temperature;BME280_humidity;BME280_pressure;Samples;Min_cycle;Max_cycle;Signal;HPM_P1;HPM_P2
2022/08/08 00:02:17;;;;;;;13.23;5.25;;;;;;;;;;4978949;28;20027;-54
2022/08/08 00:05:07;;;;;;;13.23;5.95;;;;;;;;;;4983819;28;20039;-53
2022/08/08 00:07:34;;;;;;;11.18;5.20;;;;;;;;;;4975627;28;20093;-52
2022/08/08 00:10:10;;;;;;;14.20;5.53;;;;;;;;;;4988872;28;20029;-51
2022/08/08 00:12:49;;;;;;;15.40;5.63;;;;;;;;;;4994784;28;20061;-55
2022/08/08 00:15:19;;;;;;;19.52;5.85;;;;;;;;;;4987663;28;20060;-55
2022/08/08 00:17:53;;;;;;;12.02;5.28;;;;;;;;;;4994025;28;20058;-56
2022/08/08 00:20:40;;;;;;;20.23;5.97;;;;;;;;;;4994951;28;20035;-55
2022/08/08 00:23:11;;;;;;;15.15;5.05;;;;;;;;;;4976313;28;20081;-57
2022/08/08 00:25:40;;;;;;;13.00;5.20;;;;;;;;;;4993592;28;20048;-56
2022/08/08 00:28:09;;;;;;;12.30;4.47;;;;;;;;;;4977140;28;20048;-55
2022/08/08 00:30:38;;;;;;;16.10;4.65;;;;;;;;;;4993735;28;20088;-52
2022/08/08 00:33:07;;;;;;;12.18;4.68;;;;;;;;;;4994707;28;20058;-53
2022/08/08 00:35:44;;;;;;;13.30;4.40;;;;;;;;;;4994595;28;20073;-55
2022/08/08 00:38:14;;;;;;;12.90;4.43;;;;;;;;;;4994888;28;20027;-56
2022/08/08 00:40:58;;;;;;;13.43;4.90;;;;;;;;;;4993935;28;20026;-56
2022/08/08 00:43:43;;;;;;;15.43;4.85;;;;;;;;;;4993861;28;20030;-55
2022/08/08 00:46:10;;;;;;;12.30;4.53;;;;;;;;;;4993196;28;20040;-57
2022/08/08 00:48:55;;;;;;;14.13;4.60;;;;;;;;;;4993501;28;20040;-55
2022/08/08 00:51:40;;;;;;;16.42;4.45;;;;;;;;;;4991388;28;20527;-55
2022/08/08 00:54:19;;;;;;;18.63;4.57;;;;;;;;;;4985348;28;20023;-57
2022/08/08 00:56:49;;;;;;;12.18;4.53;;;;;;;;;;4984861;28;20149;-55
2022/08/08 00:59:16;;;;;;;10.93;4.55;;;;;;;;;;4987464;28;20038;-53
2022/08/08 01:02:01;;;;;;;18.17;4.75;;;;;;;;;;4984562;28;20088;-55
2022/08/08 01:04:45;;;;;;;13.55;4.57;;;;;;;;;;4992001;28;20042;-58
2022/08/08 01:07:30;;;;;;;9.40;3.75;;;;;;;;;;4989875;28;20030;-56
2022/08/08 01:10:05;;;;;;;17.17;4.65;;;;;;;;;;4991626;28;20030;-59
2022/08/08 01:12:56;;;;;;;9.32;3.17;;;;;;;;;;4990338;28;20062;-57
2022/08/08 01:15:36;;;;;;;10.88;4.00;;;;;;;;;;4990254;28;20176;-56
2022/08/08 01:18:21;;;;;;;14.48;4.03;;;;;;;;;;4989850;28;20030;-57
2022/08/08 01:21:01;;;;;;;16.92;4.18;;;;;;;;;;4975177;28;20045;-57
2022/08/08 01:24:01;;;;;;;18.73;3.92;;;;;;;;;;4990803;28;20121;-58
2022/08/08 01:26:46;;;;;;;16.63;4.07;;;;;;;;;;4993652;28;20042;-58
2022/08/08 01:29:22;;;;;;;13.80;4.63;;;;;;;;;;4993968;28;20042;-55
2022/08/08 01:32:07;;;;;;;17.65;7.07;;;;;;;;;;4993906;28;20567;-55
2022/08/08 01:34:52;;;;;;;19.25;6.70;;;;;;;;;;4993375;28;20121;-56
2022/08/08 01:37:22;;;;;;;23.75;7.70;;;;;;;;;;4993031;28;20022;-55
2022/08/08 01:39:58;;;;;;;27.13;8.95;;;;;;;;;;4993656;28;20026;-55
2022/08/08 01:42:41;;;;;;;21.55;7.90;;;;;;;;;;4993698;28;20611;-56
2022/08/08 01:45:14;;;;;;;19.35;8.25;;;;;;;;;;4993748;28;20027;-57
2022/08/08 01:47:41;;;;;;;21.58;8.05;;;;;;;;;;4993327;28;20038;-56
2022/08/08 01:50:23;;;;;;;20.67;8.38;;;;;;;;;;4993417;28;20026;-56
2022/08/08 01:52:53;;;;;;;20.38;7.88;;;;;;;;;;4993615;28;20029;-55
2022/08/08 01:55:39;;;;;;;20.08;8.32;;;;;;;;;;4993036;28;20105;-56
2022/08/08 01:58:06;;;;;;;18.27;7.57;;;;;;;;;;4993514;28;20038;-55
2022/08/08 02:00:49;;;;;;;21.85;8.10;;;;;;;;;;4993340;28;20511;-57
2022/08/08 02:03:31;;;;;;;25.52;8.50;;;;;;;;;;4992959;28;20426;-56
2022/08/08 02:06:07;;;;;;;21.33;7.80;;;;;;;;;;4993423;28;20046;-56
2022/08/08 02:08:34;;;;;;;14.63;6.75;;;;;;;;;;4990961;28;20037;-56
2022/08/08 02:11:14;;;;;;;20.08;7.47;;;;;;;;;;4991439;28;20034;-59
2022/08/08 02:14:00;;;;;;;21.38;6.93;;;;;;;;;;4973014;28;20092;-56
2022/08/08 02:16:27;;;;;;;17.27;6.13;;;;;;;;;;4975694;28;20026;-56
2022/08/08 02:18:57;;;;;;;13.43;6.30;;;;;;;;;;4993117;28;20045;-57
2022/08/08 02:24:14;;;;;;;16.35;6.03;;;;;;;;;;4983741;28;20408;-58
2022/08/08 02:26:47;;;;;;;12.45;5.88;;;;;;;;;;4987735;28;20037;-57
2022/08/08 02:29:17;;;;;;;14.85;6.05;;;;;;;;;;4975723;28;20069;-55
2022/08/08 02:31:47;;;;;;;11.40;5.50;;;;;;;;;;4993282;28;20459;-57
2022/08/08 02:34:19;;;;;;;12.98;5.57;;;;;;;;;;4993553;28;20034;-56
2022/08/08 02:36:52;;;;;;;14.30;5.83;;;;;;;;;;4992458;28;20109;-58
2022/08/08 02:39:34;;;;;;;16.17;5.65;;;;;;;;;;4993197;28;20277;-58
2022/08/08 02:42:10;;;;;;;12.75;6.05;;;;;;;;;;4993438;28;20054;-58
2022/08/08 02:44:40;;;;;;;11.43;5.65;;;;;;;;;;4993231;28;20034;-58
2022/08/08 02:47:25;;;;;;;14.82;5.20;;;;;;;;;;4993235;28;20030;-58
2022/08/08 02:49:55;;;;;;;11.57;4.68;;;;;;;;;;4993166;28;20496;-58
2022/08/08 02:52:31;;;;;;;11.05;4.93;;;;;;;;;;4993315;28;20031;-59
2022/08/08 02:55:11;;;;;;;9.60;5.35;;;;;;;;;;4993256;28;20023;-59
2022/08/08 02:57:58;;;;;;;10.43;5.45;;;;;;;;;;4993271;28;20468;-58
2022/08/08 03:00:38;;;;;;;15.48;5.20;;;;;;;;;;4993149;28;20493;-59
2022/08/08 03:03:21;;;;;;;11.93;5.13;;;;;;;;;;4993189;28;20476;-59
2022/08/08 03:05:56;;;;;;;11.32;4.90;;;;;;;;;;4992970;28;20037;-59
2022/08/08 03:08:42;;;;;;;11.50;5.07;;;;;;;;;;4993186;28;20052;-59
2022/08/08 03:11:27;;;;;;;11.88;4.80;;;;;;;;;;4992919;28;20404;-58
2022/08/08 03:14:12;;;;;;;10.05;4.53;;;;;;;;;;4993162;28;20050;-59
2022/08/08 03:16:47;;;;;;;10.85;4.75;;;;;;;;;;4992943;28;20420;-59
2022/08/08 03:19:32;;;;;;;10.25;4.32;;;;;;;;;;4992859;28;20544;-59
2022/08/08 03:21:59;;;;;;;8.80;4.32;;;;;;;;;;4992969;28;20030;-59
2022/08/08 03:24:26;;;;;;;8.77;4.18;;;;;;;;;;4993034;28;20089;-59
2022/08/08 03:26:56;;;;;;;8.40;3.95;;;;;;;;;;4992914;28;20031;-59
2022/08/08 03:29:26;;;;;;;10.75;4.70;;;;;;;;;;4992822;28;20043;-59
2022/08/08 03:34:38;;;;;;;8.32;4.55;;;;;;;;;;4993190;28;20049;-59
2022/08/08 03:37:10;;;;;;;8.05;4.30;;;;;;;;;;4992769;28;20030;-59
2022/08/08 03:39:36;;;;;;;6.57;3.90;;;;;;;;;;4992664;28;20096;-59
2022/08/08 03:42:04;;;;;;;7.03;3.85;;;;;;;;;;4975434;28;20106;-58
2022/08/08 03:44:34;;;;;;;7.25;3.63;;;;;;;;;;4992766;28;20114;-58
2022/08/08 03:47:02;;;;;;;6.18;3.67;;;;;;;;;;4975174;28;20035;-59
2022/08/08 03:49:29;;;;;;;7.65;3.70;;;;;;;;;;4992729;28;20035;-59
2022/08/08 03:51:56;;;;;;;6.88;3.70;;;;;;;;;;4992722;28;20129;-59
2022/08/08 03:54:24;;;;;;;6.28;3.72;;;;;;;;;;4992771;28;20110;-59
2022/08/08 03:56:51;;;;;;;6.45;3.03;;;;;;;;;;4992756;28;20500;-59
2022/08/08 03:59:18;;;;;;;6.75;3.30;;;;;;;;;;4992638;28;20023;-59
2022/08/08 04:01:45;;;;;;;6.40;3.50;;;;;;;;;;4996289;28;20084;-59
2022/08/08 04:04:12;;;;;;;6.53;3.00;;;;;;;;;;4996175;28;20026;-59
2022/08/08 04:06:39;;;;;;;6.47;3.40;;;;;;;;;;4996167;28;20034;-58
2022/08/08 04:09:07;;;;;;;7.00;3.47;;;;;;;;;;4996225;28;20041;-58
2022/08/08 04:11:34;;;;;;;5.53;3.10;;;;;;;;;;4996136;28;20074;-59
2022/08/08 04:14:01;;;;;;;8.45;3.80;;;;;;;;;;4996064;28;20505;-59
2022/08/08 04:16:28;;;;;;;7.30;3.58;;;;;;;;;;4995966;28;20077;-59
2022/08/08 04:18:55;;;;;;;6.15;3.38;;;;;;;;;;4995899;28;20026;-59
2022/08/08 04:21:22;;;;;;;6.05;3.00;;;;;;;;;;4995908;28;20028;-59
2022/08/08 04:23:49;;;;;;;4.72;3.00;;;;;;;;;;4995851;28;20022;-59
2022/08/08 04:26:16;;;;;;;8.30;2.70;;;;;;;;;;4995858;28;20026;-59
2022/08/08 04:28:43;;;;;;;5.82;2.95;;;;;;;;;;4995857;28;20461;-59
2022/08/08 04:31:10;;;;;;;6.93;2.88;;;;;;;;;;4995502;28;20057;-59
2022/08/08 04:33:37;;;;;;;5.90;2.92;;;;;;;;;;4995750;28;20027;-59
2022/08/08 04:36:04;;;;;;;5.43;2.72;;;;;;;;;;4995734;28;20559;-58
2022/08/08 04:38:30;;;;;;;4.70;2.67;;;;;;;;;;4995698;28;20038;-59
2022/08/08 04:40:57;;;;;;;6.13;2.58;;;;;;;;;;4995517;28;20030;-59
2022/08/08 04:43:24;;;;;;;5.22;2.83;;;;;;;;;;4995443;28;20042;-55
2022/08/08 04:45:51;;;;;;;3.47;2.42;;;;;;;;;;4995465;28;20077;-54
2022/08/08 04:48:18;;;;;;;4.10;2.60;;;;;;;;;;4995417;28;20089;-55
2022/08/08 04:50:45;;;;;;;5.22;3.25;;;;;;;;;;4995317;28;20031;-55
2022/08/08 04:53:12;;;;;;;6.00;2.95;;;;;;;;;;4995303;28;20031;-56
2022/08/08 04:55:40;;;;;;;6.38;2.72;;;;;;;;;;4995315;28;20034;-57
2022/08/08 04:58:12;;;;;;;3.75;2.80;;;;;;;;;;4995283;28;20026;-57
2022/08/08 05:00:40;;;;;;;4.22;2.50;;;;;;;;;;4995049;28;20034;-55
2022/08/08 05:03:07;;;;;;;3.78;2.28;;;;;;;;;;4995187;28;20053;-56
2022/08/08 05:05:34;;;;;;;4.28;2.55;;;;;;;;;;4995044;28;20513;-56
2022/08/08 05:08:01;;;;;;;4.15;2.53;;;;;;;;;;4995112;28;20187;-56
2022/08/08 05:10:28;;;;;;;4.32;2.25;;;;;;;;;;4994910;28;20030;-55
2022/08/08 05:12:56;;;;;;;5.80;2.33;;;;;;;;;;4994001;28;20499;-56
2022/08/08 05:15:23;;;;;;;3.45;2.45;;;;;;;;;;4994957;28;20038;-57
2022/08/08 05:17:50;;;;;;;4.10;2.28;;;;;;;;;;4994884;28;20085;-55
2022/08/08 05:20:17;;;;;;;4.80;2.30;;;;;;;;;;4994725;28;20033;-56
2022/08/08 05:22:45;;;;;;;5.45;2.33;;;;;;;;;;4994862;28;20054;-56
2022/08/08 05:25:12;;;;;;;3.92;2.17;;;;;;;;;;4994645;28;20029;-56
2022/08/08 05:27:39;;;;;;;3.40;1.90;;;;;;;;;;4994662;28;20134;-56
2022/08/08 05:30:09;;;;;;;2.70;1.80;;;;;;;;;;4994464;28;20436;-55
2022/08/08 05:32:37;;;;;;;4.18;2.47;;;;;;;;;;4994244;28;20629;-56
2022/08/08 05:35:05;;;;;;;3.78;1.88;;;;;;;;;;4994621;28;20201;-56
2022/08/08 05:37:34;;;;;;;3.38;1.90;;;;;;;;;;4994577;28;20070;-56
2022/08/08 05:40:05;;;;;;;5.15;2.63;;;;;;;;;;4994236;28;20038;-55
2022/08/08 05:42:43;;;;;;;2.75;1.85;;;;;;;;;;4994346;28;20435;-55
2022/08/08 05:45:12;;;;;;;3.85;1.95;;;;;;;;;;4994361;28;20022;-56
2022/08/08 05:47:40;;;;;;;3.65;1.77;;;;;;;;;;4994178;28;20050;-56
2022/08/08 05:50:08;;;;;;;3.47;2.40;;;;;;;;;;4994035;28;20026;-57
2022/08/08 05:52:36;;;;;;;2.78;1.83;;;;;;;;;;4994413;28;20076;-56
2022/08/08 05:55:04;;;;;;;2.88;1.98;;;;;;;;;;4994146;28;20030;-56
2022/08/08 05:57:34;;;;;;;3.65;1.95;;;;;;;;;;4994168;28;20097;-56
2022/08/08 06:00:02;;;;;;;3.80;2.05;;;;;;;;;;4993930;28;20038;-55
2022/08/08 06:05:18;;;;;;;3.78;2.08;;;;;;;;;;5013894;28;20044;-52
2022/08/08 06:07:46;;;;;;;3.70;2.00;;;;;;;;;;5013462;28;20070;-56
2022/08/08 06:10:13;;;;;;;3.63;1.88;;;;;;;;;;5013336;28;20034;-57
2022/08/08 06:12:41;;;;;;;2.80;2.10;;;;;;;;;;5013440;28;20036;-58
2022/08/08 06:15:09;;;;;;;3.65;1.77;;;;;;;;;;5013443;28;20076;-58
2022/08/08 06:17:36;;;;;;;3.08;1.90;;;;;;;;;;5013419;28;20029;-58
2022/08/08 06:20:04;;;;;;;3.03;1.60;;;;;;;;;;5013201;28;20026;-58
2022/08/08 06:22:31;;;;;;;2.85;1.77;;;;;;;;;;5013098;28;20053;-58
2022/08/08 06:24:58;;;;;;;3.97;1.58;;;;;;;;;;5013265;28;20076;-58
2022/08/08 06:27:36;;;;;;;2.97;1.83;;;;;;;;;;5013032;28;20519;-58
2022/08/08 06:30:05;;;;;;;2.50;1.75;;;;;;;;;;5013158;28;20484;-58
2022/08/08 06:32:33;;;;;;;2.92;1.77;;;;;;;;;;5012962;28;20034;-58
2022/08/08 06:35:01;;;;;;;2.28;1.63;;;;;;;;;;5013147;28;20602;-58
2022/08/08 06:37:31;;;;;;;2.60;1.50;;;;;;;;;;5013088;28;20097;-58
2022/08/08 06:40:02;;;;;;;1.67;1.42;;;;;;;;;;5012854;28;20068;-58
2022/08/08 06:42:31;;;;;;;1.88;1.40;;;;;;;;;;5013088;28;20431;-58
2022/08/08 06:44:58;;;;;;;2.97;1.60;;;;;;;;;;5013006;28;20539;-59
2022/08/08 06:47:25;;;;;;;1.75;1.40;;;;;;;;;;5013002;28;20346;-58
2022/08/08 06:49:52;;;;;;;2.15;1.55;;;;;;;;;;5012909;28;20037;-58
2022/08/08 06:52:20;;;;;;;2.45;1.48;;;;;;;;;;5012982;28;20033;-58
2022/08/08 06:54:47;;;;;;;2.55;1.25;;;;;;;;;;5012947;28;20113;-58
2022/08/08 06:57:15;;;;;;;3.03;1.55;;;;;;;;;;5012920;28;20495;-58
2022/08/08 06:59:42;;;;;;;2.63;1.50;;;;;;;;;;5012955;28;20038;-58
2022/08/08 07:02:12;;;;;;;3.40;1.50;;;;;;;;;;5012724;28;20480;-58
2022/08/08 07:04:46;;;;;;;2.33;1.33;;;;;;;;;;5012814;28;20030;-58
2022/08/08 07:07:17;;;;;;;2.05;1.40;;;;;;;;;;5013152;28;20104;-58
2022/08/08 07:09:54;;;;;;;2.13;1.30;;;;;;;;;;5012720;28;20471;-56
2022/08/08 07:12:29;;;;;;;2.20;1.42;;;;;;;;;;5012774;28;20034;-61
2022/08/08 07:15:06;;;;;;;2.33;1.20;;;;;;;;;;5012767;28;20101;-56
2022/08/08 07:17:37;;;;;;;2.72;1.63;;;;;;;;;;5012766;28;20550;-57
2022/08/08 07:20:06;;;;;;;2.28;1.48;;;;;;;;;;5012476;28;20463;-57
2022/08/08 07:22:49;;;;;;;1.88;1.30;;;;;;;;;;5012572;28;20052;-56
2022/08/08 07:25:16;;;;;;;1.80;1.40;;;;;;;;;;5012634;28;20033;-56
2022/08/08 07:27:47;;;;;;;2.08;1.13;;;;;;;;;;5012534;28;20546;-57
2022/08/08 07:30:14;;;;;;;1.75;1.33;;;;;;;;;;5012424;28;20038;-56
2022/08/08 07:32:41;;;;;;;2.00;1.23;;;;;;;;;;5012317;28;20054;-55
2022/08/08 07:35:09;;;;;;;1.73;1.17;;;;;;;;;;5013905;28;20026;-56
2022/08/08 07:37:37;;;;;;;2.10;1.17;;;;;;;;;;5016400;28;20062;-56
2022/08/08 07:40:04;;;;;;;1.67;1.30;;;;;;;;;;5016271;28;20535;-55
2022/08/08 07:42:32;;;;;;;2.28;1.40;;;;;;;;;;5016235;28;20029;-56
2022/08/08 07:44:59;;;;;;;1.85;1.20;;;;;;;;;;5016236;28;20029;-55
2022/08/08 07:47:27;;;;;;;1.85;1.20;;;;;;;;;;5016143;28;20049;-57
2022/08/08 07:49:53;;;;;;;2.30;1.20;;;;;;;;;;5015979;28;20030;-55
2022/08/08 07:52:21;;;;;;;2.28;1.38;;;;;;;;;;5016160;28;20139;-57
2022/08/08 07:54:51;;;;;;;2.55;1.10;;;;;;;;;;5015989;28;20506;-57
2022/08/08 07:57:24;;;;;;;1.25;0.95;;;;;;;;;;5015949;28;20048;-56
2022/08/08 08:00:01;;;;;;;1.83;1.23;;;;;;;;;;5015917;28;20029;-56
2022/08/08 08:02:34;;;;;;;2.28;1.30;;;;;;;;;;5015815;28;20032;-57
2022/08/08 08:05:01;;;;;;;1.48;1.10;;;;;;;;;;5015827;28;20037;-52
2022/08/08 08:07:33;;;;;;;2.05;1.17;;;;;;;;;;5015786;28;20030;-56
2022/08/08 08:10:02;;;;;;;1.15;1.00;;;;;;;;;;5015574;28;20038;-56
2022/08/08 08:12:29;;;;;;;1.30;1.02;;;;;;;;;;5015098;28;20113;-56
2022/08/08 08:15:06;;;;;;;1.40;1.00;;;;;;;;;;5015626;28;20101;-54
2022/08/08 08:17:39;;;;;;;1.65;1.00;;;;;;;;;;5015657;28;20061;-57
2022/08/08 08:20:07;;;;;;;1.50;0.98;;;;;;;;;;5015512;28;20032;-56
2022/08/08 08:22:35;;;;;;;1.63;0.90;;;;;;;;;;5015542;28;20036;-56
2022/08/08 08:25:02;;;;;;;1.75;1.13;;;;;;;;;;4997864;28;20033;-57
2022/08/08 08:27:29;;;;;;;1.20;0.93;;;;;;;;;;5015222;28;20041;-54
2022/08/08 08:29:56;;;;;;;1.55;1.08;;;;;;;;;;5015301;28;20045;-55
2022/08/08 08:32:23;;;;;;;1.65;0.95;;;;;;;;;;5015127;28;20056;-52
2022/08/08 08:34:51;;;;;;;2.00;0.82;;;;;;;;;;5015258;28;20044;-51
2022/08/08 08:37:18;;;;;;;2.08;1.30;;;;;;;;;;5015173;28;20105;-56
2022/08/08 08:39:45;;;;;;;3.03;1.20;;;;;;;;;;5015091;28;20029;-56
2022/08/08 08:42:12;;;;;;;1.65;1.05;;;;;;;;;;5015239;28;20084;-54
2022/08/08 08:44:40;;;;;;;1.77;0.98;;;;;;;;;;5015011;28;20041;-51
2022/08/08 08:47:07;;;;;;;3.17;1.00;;;;;;;;;;5014840;28;20034;-55
2022/08/08 08:49:34;;;;;;;1.77;0.90;;;;;;;;;;5014996;28;20037;-55
2022/08/08 08:52:03;;;;;;;1.65;0.93;;;;;;;;;;5014942;28;20538;-55
2022/08/08 08:54:33;;;;;;;2.05;0.95;;;;;;;;;;5014882;28;20361;-56
2022/08/08 08:57:01;;;;;;;1.42;1.00;;;;;;;;;;5014903;28;20033;-53
2022/08/08 08:59:29;;;;;;;1.80;0.80;;;;;;;;;;5014759;28;20021;-56
2022/08/08 09:01:56;;;;;;;2.38;1.20;;;;;;;;;;5014770;28;20109;-56
2022/08/08 09:04:23;;;;;;;2.47;0.93;;;;;;;;;;5014857;28;20111;-55
2022/08/08 09:06:56;;;;;;;0.73;0.70;;;;;;;;;;5014658;28;20515;-55
2022/08/08 09:09:22;;;;;;;;;;;;;;;;;;5014961;28;20037;-55
2022/08/08 09:11:51;;;;;;;2.28;1.08;;;;;;;;;;5014501;28;19909;-55
2022/08/08 09:14:22;;;;;;;2.10;1.20;;;;;;;;;;5014550;28;20096;-57
2022/08/08 09:16:50;;;;;;;1.63;0.88;;;;;;;;;;5014442;28;20061;-55
2022/08/08 09:19:17;;;;;;;2.17;1.33;;;;;;;;;;5014443;28;20084;-56
2022/08/08 09:21:45;;;;;;;1.60;0.80;;;;;;;;;;5014459;28;20018;-55
2022/08/08 09:24:14;;;;;;;0.93;0.80;;;;;;;;;;5014343;28;20484;-55
2022/08/08 09:27:07;;;;;;;1.20;0.80;;;;;;;;;;5014276;28;20084;-55
2022/08/08 09:29:46;;;;;;;2.60;0.80;;;;;;;;;;4992202;28;20460;-57
2022/08/08 09:32:16;;;;;;;1.10;0.70;;;;;;;;;;4994519;28;20444;-56
2022/08/08 09:34:48;;;;;;;0.98;0.75;;;;;;;;;;4993739;28;20038;-58
2022/08/08 09:37:17;;;;;;;1.67;1.00;;;;;;;;;;4994601;28;20065;-58
2022/08/08 09:39:53;;;;;;;1.55;1.05;;;;;;;;;;4994366;28;20022;-58
2022/08/08 09:42:22;;;;;;;1.25;0.90;;;;;;;;;;4994304;28;20030;-58
2022/08/08 09:45:09;;;;;;;0.70;0.60;;;;;;;;;;4994207;28;20077;-58
2022/08/08 09:47:37;;;;;;;1.25;0.60;;;;;;;;;;4994090;28;20035;-58
2022/08/08 09:50:06;;;;;;;1.45;0.80;;;;;;;;;;4994171;28;20037;-59
2022/08/08 09:52:35;;;;;;;1.05;0.75;;;;;;;;;;4994287;28;20029;-59
2022/08/08 09:55:03;;;;;;;1.38;0.80;;;;;;;;;;4994085;28;20041;-58
2022/08/08 09:57:39;;;;;;;1.20;0.70;;;;;;;;;;4993737;28;20509;-59
2022/08/08 10:00:10;;;;;;;1.77;1.27;;;;;;;;;;4994034;28;20034;-59
2022/08/08 10:02:39;;;;;;;1.20;0.80;;;;;;;;;;4994004;28;20034;-59
2022/08/08 10:05:08;;;;;;;1.48;0.73;;;;;;;;;;4993912;28;20034;-58
2022/08/08 10:07:35;;;;;;;1.23;0.65;;;;;;;;;;4976487;28;20030;-59
2022/08/08 10:10:02;;;;;;;1.42;0.70;;;;;;;;;;4993799;28;20039;-58
2022/08/08 10:12:33;;;;;;;1.67;0.75;;;;;;;;;;4993949;28;20503;-59
2022/08/08 10:15:01;;;;;;;1.67;0.75;;;;;;;;;;4993795;28;20023;-59
2022/08/08 10:17:28;;;;;;;1.05;0.70;;;;;;;;;;4993808;28;20061;-58
2022/08/08 10:19:59;;;;;;;1.02;0.60;;;;;;;;;;4993570;28;20030;-59
2022/08/08 10:22:27;;;;;;;1.30;0.80;;;;;;;;;;4993649;28;20076;-58
2022/08/08 10:24:57;;;;;;;0.80;0.70;;;;;;;;;;4993761;28;20018;-58
2022/08/08 10:27:27;;;;;;;1.40;0.55;;;;;;;;;;4993635;28;20030;-58
2022/08/08 10:30:01;;;;;;;1.02;0.63;;;;;;;;;;4993420;28;20396;-59
2022/08/08 10:32:36;;;;;;;1.42;0.90;;;;;;;;;;4993458;28;20053;-59
2022/08/08 10:35:12;;;;;;;1.10;0.70;;;;;;;;;;4993519;28;20073;-59
2022/08/08 10:37:50;;;;;;;2.20;0.90;;;;;;;;;;4993696;28;20116;-59
2022/08/08 10:40:18;;;;;;;1.95;1.00;;;;;;;;;;4993564;28;20034;-58
2022/08/08 10:42:45;;;;;;;1.45;1.00;;;;;;;;;;4993493;28;20027;-59
2022/08/08 10:45:12;;;;;;;1.42;0.75;;;;;;;;;;4993374;28;20036;-59
2022/08/08 10:47:39;;;;;;;1.20;0.75;;;;;;;;;;4993389;28;20496;-59
2022/08/08 10:50:07;;;;;;;1.25;0.60;;;;;;;;;;4988287;28;20069;-56
2022/08/08 10:52:36;;;;;;;1.85;0.75;;;;;;;;;;4989473;28;20320;-56
2022/08/08 10:55:07;;;;;;;1.63;0.80;;;;;;;;;;4988634;28;20030;-56
2022/08/08 10:57:39;;;;;;;1.17;0.60;;;;;;;;;;4972170;28;20105;-58
2022/08/08 11:00:07;;;;;;;4.28;1.30;;;;;;;;;;4988773;28;20034;-59
2022/08/08 11:02:34;;;;;;;3.60;0.90;;;;;;;;;;4992974;28;20042;-59
2022/08/08 11:05:03;;;;;;;1.63;0.90;;;;;;;;;;4992997;28;20138;-58
2022/08/08 11:07:31;;;;;;;2.42;1.02;;;;;;;;;;4992625;28;20030;-58
2022/08/08 11:10:02;;;;;;;2.08;0.82;;;;;;;;;;4993245;28;20037;-56
2022/08/08 11:12:32;;;;;;;1.95;1.10;;;;;;;;;;4997045;28;20085;-56
2022/08/08 11:15:00;;;;;;;1.45;0.80;;;;;;;;;;4997029;28;20102;-52
2022/08/08 11:17:31;;;;;;;3.55;0.90;;;;;;;;;;4996791;28;20076;-57
2022/08/08 11:20:00;;;;;;;2.53;0.90;;;;;;;;;;4995549;28;20085;-56
2022/08/08 11:22:29;;;;;;;3.17;1.10;;;;;;;;;;4996752;28;20031;-51
2022/08/08 11:25:00;;;;;;;3.40;0.90;;;;;;;;;;4996865;28;20114;-57
2022/08/08 11:27:32;;;;;;;1.95;1.05;;;;;;;;;;4996697;28;20556;-56
2022/08/08 11:29:59;;;;;;;3.60;0.90;;;;;;;;;;4995166;28;20084;-57
2022/08/08 11:32:29;;;;;;;2.22;0.95;;;;;;;;;;4996517;28;20057;-56
2022/08/08 11:35:13;;;;;;;2.13;0.95;;;;;;;;;;4996803;28;20026;-54
2022/08/08 11:37:41;;;;;;;1.27;0.80;;;;;;;;;;4996600;28;20527;-58
2022/08/08 11:40:09;;;;;;;2.28;1.02;;;;;;;;;;4977505;28;20562;-55
2022/08/08 11:42:36;;;;;;;4.70;0.80;;;;;;;;;;4996160;28;20026;-58
2022/08/08 11:45:08;;;;;;;1.15;0.80;;;;;;;;;;4996310;28;20030;-59
2022/08/08 11:47:35;;;;;;;1.35;0.95;;;;;;;;;;4996233;28;20031;-56
2022/08/08 11:50:07;;;;;;;1.55;0.80;;;;;;;;;;4994910;28;20069;-58
2022/08/08 11:52:35;;;;;;;1.20;0.75;;;;;;;;;;4991833;28;20057;-57
2022/08/08 11:55:02;;;;;;;1.10;0.60;;;;;;;;;;4984523;28;20109;-56
2022/08/08 11:57:32;;;;;;;1.70;0.88;;;;;;;;;;4976847;28;20035;-58
2022/08/08 12:00:06;;;;;;;1.15;0.68;;;;;;;;;;4993411;28;20109;-55
2022/08/08 12:02:45;;;;;;;2.75;1.00;;;;;;;;;;4985066;28;20054;-53
2022/08/08 12:05:12;;;;;;;2.00;1.00;;;;;;;;;;4976538;28;20101;-56
2022/08/08 12:07:46;;;;;;;1.88;0.80;;;;;;;;;;4978398;28;20034;-56
2022/08/08 12:10:14;;;;;;;2.45;0.80;;;;;;;;;;4986064;28;20105;-53
2022/08/08 12:12:42;;;;;;;1.25;0.70;;;;;;;;;;4980936;28;20038;-57
2022/08/08 12:15:09;;;;;;;1.92;0.73;;;;;;;;;;4976253;28;20477;-51
2022/08/08 12:17:37;;;;;;;0.73;0.60;;;;;;;;;;4976366;28;20484;-50
2022/08/08 12:20:05;;;;;;;1.30;0.80;;;;;;;;;;4975554;28;20050;-55
2022/08/08 12:22:33;;;;;;;1.77;0.80;;;;;;;;;;4975280;28;20038;-54
2022/08/08 12:25:00;;;;;;;1.92;0.73;;;;;;;;;;4975790;28;20122;-53
2022/08/08 12:27:37;;;;;;;4.95;0.75;;;;;;;;;;4976261;28;20031;-58
2022/08/08 12:30:05;;;;;;;2.53;0.75;;;;;;;;;;4975523;28;20481;-57
2022/08/08 12:32:41;;;;;;;1.02;0.73;;;;;;;;;;4975865;28;20049;-59
2022/08/08 12:35:17;;;;;;;4.13;1.00;;;;;;;;;;4975903;28;20034;-54
2022/08/08 12:37:45;;;;;;;5.22;1.20;;;;;;;;;;4976147;28;20109;-57
2022/08/08 12:40:14;;;;;;;4.00;1.40;;;;;;;;;;4975318;28;20026;-52
2022/08/08 12:42:45;;;;;;;4.10;0.90;;;;;;;;;;4977240;28;20396;-54
2022/08/08 12:45:12;;;;;;;2.03;0.90;;;;;;;;;;4980094;28;20033;-54
2022/08/08 12:47:39;;;;;;;3.95;1.33;;;;;;;;;;4975571;28;20039;-57
2022/08/08 12:50:06;;;;;;;5.10;0.80;;;;;;;;;;4975233;28;20034;-57
2022/08/08 12:52:38;;;;;;;3.38;0.88;;;;;;;;;;4975752;28;20054;-55
2022/08/08 12:55:10;;;;;;;4.60;0.68;;;;;;;;;;4986678;28;20561;-55
2022/08/08 12:57:38;;;;;;;3.00;0.95;;;;;;;;;;4975838;28;20106;-55
2022/08/08 13:00:05;;;;;;;6.15;0.80;;;;;;;;;;4976382;28;20055;-55
2022/08/08 13:02:34;;;;;;;5.28;0.93;;;;;;;;;;5006228;28;20056;-60
2022/08/08 13:05:03;;;;;;;8.32;1.25;;;;;;;;;;5013386;28;20022;-54
2022/08/08 13:07:34;;;;;;;6.03;0.98;;;;;;;;;;5014101;28;20121;-54
2022/08/08 13:10:03;;;;;;;2.72;0.88;;;;;;;;;;5012765;28;20117;-55
2022/08/08 13:12:35;;;;;;;8.07;1.83;;;;;;;;;;5013866;28;20061;-53
2022/08/08 13:15:05;;;;;;;3.38;0.77;;;;;;;;;;5009215;28;20034;-53
2022/08/08 13:17:33;;;;;;;3.22;0.75;;;;;;;;;;4984664;28;20484;-58
2022/08/08 13:20:00;;;;;;;4.40;0.90;;;;;;;;;;4974088;28;20392;-54
2022/08/08 13:22:27;;;;;;;2.97;0.70;;;;;;;;;;4974757;28;20093;-52
2022/08/08 13:24:54;;;;;;;4.03;1.02;;;;;;;;;;4974271;28;20481;-56
2022/08/08 13:27:27;;;;;;;5.88;1.23;;;;;;;;;;4973860;28;20466;-56
2022/08/08 13:29:58;;;;;;;2.63;0.80;;;;;;;;;;4973764;28;20030;-56
2022/08/08 13:32:26;;;;;;;2.17;1.15;;;;;;;;;;4973209;28;20374;-55
2022/08/08 13:34:54;;;;;;;4.68;1.00;;;;;;;;;;4974482;28;20070;-55
2022/08/08 13:37:22;;;;;;;3.30;1.10;;;;;;;;;;4973548;28;20027;-52
2022/08/08 13:40:01;;;;;;;3.17;0.88;;;;;;;;;;4973414;28;20023;-55
2022/08/08 13:42:28;;;;;;;3.63;0.65;;;;;;;;;;4974437;28;20129;-52
2022/08/08 13:45:00;;;;;;;3.35;0.80;;;;;;;;;;4981845;28;20776;-52
2022/08/08 13:47:27;;;;;;;9.63;0.90;;;;;;;;;;4993143;28;20050;-52
2022/08/08 13:49:58;;;;;;;4.35;0.68;;;;;;;;;;4992490;28;20031;-53
2022/08/08 13:52:25;;;;;;;5.25;1.13;;;;;;;;;;4990041;28;20026;-54
2022/08/08 13:54:55;;;;;;;5.10;0.77;;;;;;;;;;4973853;28;20464;-53
2022/08/08 13:57:26;;;;;;;4.85;0.90;;;;;;;;;;4985349;28;20069;-52
2022/08/08 14:00:04;;;;;;;4.00;1.08;;;;;;;;;;4991934;28;20388;-50
2022/08/08 14:02:33;;;;;;;3.05;0.80;;;;;;;;;;4993189;28;20045;-49
2022/08/08 14:05:07;;;;;;;3.78;0.88;;;;;;;;;;4992964;28;20087;-56
2022/08/08 14:07:36;;;;;;;3.22;0.85;;;;;;;;;;4993494;28;20029;-54
2022/08/08 14:10:06;;;;;;;3.40;0.90;;;;;;;;;;4991488;28;20052;-52
2022/08/08 14:12:34;;;;;;;2.83;0.77;;;;;;;;;;4993199;28;20105;-53
2022/08/08 14:15:02;;;;;;;3.83;0.80;;;;;;;;;;4992537;28;20058;-53
2022/08/08 14:17:29;;;;;;;6.95;1.20;;;;;;;;;;4983116;28;20054;-55
2022/08/08 14:20:03;;;;;;;1.45;0.80;;;;;;;;;;4972289;28;20085;-55
2022/08/08 14:22:30;;;;;;;7.60;0.77;;;;;;;;;;4961999;28;20023;-56
2022/08/08 14:25:06;;;;;;;2.72;0.77;;;;;;;;;;4975936;28;20559;-59
2022/08/08 14:27:37;;;;;;;2.88;1.13;;;;;;;;;;4984200;28;20065;-53
2022/08/08 14:30:10;;;;;;;9.77;1.42;;;;;;;;;;4991165;28;20054;-56
2022/08/08 14:32:50;;;;;;;5.00;1.10;;;;;;;;;;4991178;28;20038;-54
2022/08/08 14:35:21;;;;;;;6.43;1.00;;;;;;;;;;4991649;28;20045;-55
2022/08/08 14:37:49;;;;;;;5.15;1.35;;;;;;;;;;4992286;28;20057;-57
2022/08/08 14:40:20;;;;;;;2.50;1.00;;;;;;;;;;4991188;28;20026;-54
2022/08/08 14:42:49;;;;;;;2.30;1.00;;;;;;;;;;4992059;28;20029;-53
2022/08/08 14:45:16;;;;;;;5.38;1.17;;;;;;;;;;4992720;28;20503;-52
2022/08/08 14:47:49;;;;;;;6.40;1.08;;;;;;;;;;4991724;28;20463;-58
2022/08/08 14:50:17;;;;;;;5.30;1.50;;;;;;;;;;4992046;28;20027;-51
2022/08/08 14:52:45;;;;;;;6.85;1.50;;;;;;;;;;4991853;28;20428;-54
2022/08/08 14:55:12;;;;;;;6.25;1.63;;;;;;;;;;4992189;28;20492;-53
2022/08/08 14:57:40;;;;;;;3.50;1.40;;;;;;;;;;4992945;28;20061;-49
2022/08/08 15:00:07;;;;;;;8.45;1.50;;;;;;;;;;4991312;28;20042;-52
2022/08/08 15:02:35;;;;;;;9.82;1.60;;;;;;;;;;4990251;28;20455;-52
2022/08/08 15:05:02;;;;;;;6.65;1.75;;;;;;;;;;5007871;28;20404;-53
2022/08/08 15:07:29;;;;;;;9.32;1.33;;;;;;;;;;5012210;28;20079;-56
2022/08/08 15:09:56;;;;;;;4.53;1.40;;;;;;;;;;5010818;28;20033;-54
2022/08/08 15:12:23;;;;;;;10.60;1.50;;;;;;;;;;5001711;28;20018;-56